Schubert, Pennsylvania
Current Conditions -  °F | °C
As of 2:58 PM on Thursday 29 Jan 2015 (Local Time) from KMUI Reporting Station
Broken Clouds Broken Clouds  
Wind Chill: 22°   Ceiling: 7000
Heat Index: 28°   Visibility: 10mi
Dew Point: 12°   Wind: 6mph
Humidity: 50%   Direction: 70°ENE
Pressure: 30.07"   Gusts: NA
Location:  40.4893°N, 76.2947°W
Report Text: KMUI 291958Z AUTO 07005KT 10SM BKN070 M02/M11 A3007 RMK AO2 PRESFR SLP193 T10201112
Loading
Personal Weather Stations






























Interactive Weather Map New forecast layout! Learn more

10-Day Weather Forecast

Advertisements
Track Severe Weather on mobile